Time;durP1;ratioP1;P1;durP2;ratioP2;P2;SDS_P1;SDS_P2;PMS_P1;PMS_P2;Temp;Humidity;BMP_temperature;BMP_pressure;BME280_temperature;BME280_humidity;BME280_pressure;Samples;Min_cycle;Max_cycle;Signal;HPM_P1;HPM_P2
2021/04/07 00:02:16;;;;;;;9.35;6.10;;;51.40;2227.20;;;;;;5094991;28;20063;-68
2021/04/07 00:04:59;;;;;;;10.93;6.65;;;51.40;2227.20;;;;;;5094565;28;20085;-67
2021/04/07 00:07:25;;;;;;;9.68;6.07;;;51.40;2227.20;;;;;;5094895;28;20048;-67
2021/04/07 00:09:51;;;;;;;8.73;5.88;;;51.40;2227.20;;;;;;5094371;28;20449;-68
2021/04/07 00:12:16;;;;;;;10.98;6.53;;;51.40;2227.20;;;;;;5094666;28;20027;-67
2021/04/07 00:14:42;;;;;;;11.95;5.93;;;51.40;2227.20;;;;;;5094546;28;20099;-67
2021/04/07 00:17:08;;;;;;;8.05;5.57;;;51.40;2227.20;;;;;;5075054;28;20434;-67
2021/04/07 00:19:33;;;;;;;8.13;5.63;;;51.40;2227.20;;;;;;5094372;28;20024;-67
2021/04/07 00:21:59;;;;;;;9.45;6.13;;;51.30;2227.20;;;;;;5094529;28;20484;-68
2021/04/07 00:24:25;;;;;;;9.90;6.28;;;51.30;2227.20;;;;;;5094300;28;20024;-67
2021/04/07 00:26:50;;;;;;;10.68;6.60;;;51.30;2227.20;;;;;;5094236;28;20016;-68
2021/04/07 00:29:16;;;;;;;9.35;6.03;;;51.30;2227.20;;;;;;5094250;28;20091;-68
2021/04/07 00:31:42;;;;;;;10.02;6.45;;;51.30;2227.20;;;;;;5094466;28;20020;-69
2021/04/07 00:34:07;;;;;;;10.02;6.70;;;51.30;2227.20;;;;;;5093955;28;20052;-67
2021/04/07 00:36:33;;;;;;;9.23;6.63;;;51.30;2227.20;;;;;;5094450;28;20138;-67
2021/04/07 00:38:59;;;;;;;10.23;6.47;;;51.30;2227.20;;;;;;5093673;28;20110;-68
2021/04/07 00:41:24;;;;;;;9.68;6.57;;;51.30;2227.20;;;;;;5094419;28;20020;-68
2021/04/07 00:43:50;;;;;;;9.80;6.93;;;51.30;2227.20;;;;;;5094049;28;20555;-68
2021/04/07 00:46:16;;;;;;;11.18;6.75;;;51.30;2227.20;;;;;;5094188;28;20035;-68
2021/04/07 00:48:42;;;;;;;10.07;6.78;;;51.30;2227.20;;;;;;5094011;28;20032;-68
2021/04/07 00:51:08;;;;;;;10.38;6.78;;;51.30;2227.20;;;;;;5093696;28;20012;-67
2021/04/07 00:53:34;;;;;;;10.40;7.00;;;51.30;2227.20;;;;;;5094139;28;20069;-67
2021/04/07 00:56:00;;;;;;;11.43;7.35;;;51.30;2227.20;;;;;;5093657;28;20024;-66
2021/04/07 00:58:26;;;;;;;10.75;6.75;;;51.30;2227.20;;;;;;5093629;28;20081;-70
2021/04/07 01:00:54;;;;;;;11.05;6.85;;;51.30;2227.20;;;;;;5093624;28;20020;-67
2021/04/07 01:03:20;;;;;;;11.48;7.20;;;51.30;2227.20;;;;;;5093771;28;20012;-68
2021/04/07 01:05:46;;;;;;;10.48;7.18;;;51.30;2227.20;;;;;;5093710;28;20027;-67
2021/04/07 01:08:12;;;;;;;11.07;7.13;;;51.30;2227.20;;;;;;5093573;28;20389;-68
2021/04/07 01:10:37;;;;;;;11.35;7.18;;;51.30;2227.20;;;;;;5093448;28;20039;-68
2021/04/07 01:13:04;;;;;;;11.68;7.38;;;51.30;2227.20;;;;;;5093511;28;20028;-68
2021/04/07 01:15:30;;;;;;;12.05;7.20;;;51.30;2227.20;;;;;;5093601;28;20177;-68
2021/04/07 01:17:57;;;;;;;12.90;7.50;;;51.30;2227.20;;;;;;5093664;28;20036;-68
2021/04/07 01:20:23;;;;;;;11.80;7.30;;;51.30;2227.20;;;;;;5093496;28;20032;-69
2021/04/07 01:22:57;;;;;;;11.10;6.88;;;51.30;2227.20;;;;;;5093533;28;20028;-68
2021/04/07 01:25:22;;;;;;;10.95;6.38;;;51.20;2227.20;;;;;;5093217;28;20034;-70
2021/04/07 01:27:48;;;;;;;11.60;7.00;;;51.20;2227.20;;;;;;5093350;28;20473;-67
2021/04/07 01:30:16;;;;;;;11.35;7.13;;;51.20;2227.20;;;;;;5092837;28;20032;-68
2021/04/07 01:32:42;;;;;;;9.75;6.47;;;51.20;2227.20;;;;;;5093413;28;20028;-64
2021/04/07 01:35:09;;;;;;;10.73;6.78;;;51.20;2227.20;;;;;;5092919;28;20056;-68
2021/04/07 01:37:36;;;;;;;12.40;7.25;;;26.50;2201.60;;;;;;5093210;28;20081;-68
2021/04/07 01:40:08;;;;;;;9.95;6.30;;;26.50;2201.60;;;;;;5092814;28;20064;-69
2021/04/07 01:42:34;;;;;;;10.23;5.95;;;26.50;2201.60;;;;;;5092893;28;20024;-67
2021/04/07 01:45:02;;;;;;;9.90;6.72;;;26.40;2201.60;;;;;;5093250;28;20182;-68
2021/04/07 01:47:29;;;;;;;10.02;6.10;;;26.30;2201.60;;;;;;5092935;28;20024;-68
2021/04/07 01:49:56;;;;;;;9.18;5.80;;;26.20;2201.60;;;;;;5092747;28;20040;-69
2021/04/07 01:52:22;;;;;;;11.55;6.60;;;26.20;2201.60;;;;;;5092866;28;20028;-68
2021/04/07 01:54:47;;;;;;;10.88;6.38;;;26.20;2201.60;;;;;;5092835;28;20032;-68
2021/04/07 01:57:13;;;;;;;9.85;5.93;;;26.20;2201.60;;;;;;5092478;28;20107;-69
2021/04/07 01:59:39;;;;;;;9.65;5.85;;;26.20;2201.60;;;;;;5092629;28;20031;-68
2021/04/07 02:02:04;;;;;;;9.27;5.70;;;26.20;2201.60;;;;;;5092808;28;20031;-68
2021/04/07 02:04:30;;;;;;;9.05;5.65;;;26.20;2201.60;;;;;;5092577;28;20036;-68
2021/04/07 02:06:57;;;;;;;8.60;5.10;;;26.20;2201.60;;;;;;5091842;28;20028;-68
2021/04/07 02:09:24;;;;;;;9.07;5.20;;;26.20;2201.60;;;;;;5092324;28;20077;-67
2021/04/07 02:11:52;;;;;;;9.50;5.65;;;26.20;2201.60;;;;;;5092508;28;20119;-68
2021/04/07 02:14:19;;;;;;;8.00;5.07;;;26.20;2201.60;;;;;;5092224;28;20392;-68
2021/04/07 02:17:03;;;;;;;8.77;4.93;;;26.20;2201.60;;;;;;5092405;28;20020;-68
2021/04/07 02:19:32;;;;;;;8.23;4.82;;;26.10;2201.60;;;;;;5091982;28;20035;-68
2021/04/07 02:22:07;;;;;;;7.65;4.82;;;26.10;2201.60;;;;;;5092269;28;20032;-68
2021/04/07 02:24:34;;;;;;;7.22;4.00;;;26.10;2201.60;;;;;;5092336;28;20122;-67
2021/04/07 02:27:13;;;;;;;7.20;3.80;;;26.10;2201.60;;;;;;5092063;28;20476;-67
2021/04/07 02:29:41;;;;;;;7.07;3.90;;;26.10;2201.60;;;;;;5091881;28;20063;-67
2021/04/07 02:32:07;;;;;;;7.65;3.90;;;26.10;2201.60;;;;;;5091923;28;20027;-68
2021/04/07 02:34:33;;;;;;;6.18;4.07;;;26.10;2201.60;;;;;;5091930;28;20040;-67
2021/04/07 02:36:59;;;;;;;6.50;3.85;;;26.10;2201.60;;;;;;5091772;28;20539;-68
2021/04/07 02:39:25;;;;;;;7.63;4.13;;;26.10;2201.60;;;;;;5091970;28;20020;-67
2021/04/07 02:41:52;;;;;;;5.85;3.78;;;26.10;2201.60;;;;;;5091856;28;20058;-68
2021/04/07 02:44:17;;;;;;;6.70;4.38;;;26.00;2201.60;;;;;;5091843;28;20024;-68
2021/04/07 02:46:43;;;;;;;6.18;4.00;;;26.10;2201.60;;;;;;5091780;28;20047;-68
2021/04/07 02:49:09;;;;;;;6.75;4.15;;;26.10;2201.60;;;;;;5091556;28;20031;-69
2021/04/07 02:51:34;;;;;;;7.00;4.47;;;26.10;2201.60;;;;;;5091701;28;20042;-68
2021/04/07 02:54:01;;;;;;;6.75;4.22;;;26.10;2201.60;;;;;;5091621;28;20077;-69
2021/04/07 02:56:32;;;;;;;6.85;4.25;;;26.10;2201.60;;;;;;5091618;28;20095;-68
2021/04/07 02:58:58;;;;;;;6.22;4.20;;;26.10;2201.60;;;;;;5091238;28;20226;-68
2021/04/07 03:01:23;;;;;;;6.43;4.28;;;26.10;2201.60;;;;;;5091753;28;20062;-68
2021/04/07 03:03:49;;;;;;;6.40;4.20;;;26.20;2201.60;;;;;;5091532;28;20338;-68
2021/04/07 03:06:15;;;;;;;6.80;4.20;;;26.10;2201.60;;;;;;5091364;28;20435;-68
2021/04/07 03:08:41;;;;;;;6.55;4.30;;;26.20;2201.60;;;;;;5091418;28;20022;-68
2021/04/07 03:11:07;;;;;;;6.82;4.50;;;26.20;2201.60;;;;;;5091199;28;20024;-67
2021/04/07 03:13:33;;;;;;;7.05;4.82;;;26.20;2201.60;;;;;;5090756;28;20020;-69
2021/04/07 03:15:58;;;;;;;6.95;4.82;;;26.20;2201.60;;;;;;5091429;28;20423;-68
2021/04/07 03:18:24;;;;;;;7.55;4.90;;;26.20;2201.60;;;;;;5090432;28;20016;-68
2021/04/07 03:20:50;;;;;;;6.78;4.15;;;26.20;2201.60;;;;;;5091178;28;20027;-68
2021/04/07 03:23:16;;;;;;;7.57;4.80;;;26.10;2201.60;;;;;;5091130;28;20509;-71
2021/04/07 03:25:42;;;;;;;7.38;4.90;;;26.20;2201.60;;;;;;5091097;28;20031;-68
2021/04/07 03:28:07;;;;;;;7.53;4.93;;;26.20;2201.60;;;;;;5091403;28;20163;-67
2021/04/07 03:30:49;;;;;;;9.13;5.18;;;26.20;2201.60;;;;;;5090765;28;20524;-68
2021/04/07 03:33:32;;;;;;;7.82;5.07;;;26.20;2201.60;;;;;;5091216;28;20384;-68
2021/04/07 03:35:59;;;;;;;8.80;5.28;;;26.20;2201.60;;;;;;5091167;28;20047;-68
2021/04/07 03:38:25;;;;;;;8.48;5.25;;;26.20;2201.60;;;;;;5091221;28;20385;-68
2021/04/07 03:40:51;;;;;;;9.93;5.85;;;26.20;2201.60;;;;;;5091072;28;20028;-68
2021/04/07 03:43:19;;;;;;;8.50;5.63;;;26.20;2201.60;;;;;;5091067;28;20024;-69
2021/04/07 03:45:50;;;;;;;8.63;5.78;;;26.20;2201.60;;;;;;5072823;28;20417;-67
2021/04/07 03:48:18;;;;;;;11.73;8.13;;;26.20;2201.60;;;;;;5091097;28;20107;-68
2021/04/07 03:50:44;;;;;;;12.82;9.18;;;26.20;2201.60;;;;;;5090815;28;20516;-72
2021/04/07 03:53:11;;;;;;;12.23;8.25;;;26.20;2201.60;;;;;;5090923;28;20036;-69
2021/04/07 03:55:38;;;;;;;9.80;6.45;;;26.40;2201.60;;;;;;5090801;28;20472;-67
2021/04/07 03:58:04;;;;;;;8.88;6.43;;;26.30;2201.60;;;;;;5091177;28;20020;-68
2021/04/07 04:00:30;;;;;;;8.18;5.47;;;26.40;2201.60;;;;;;5090516;28;20115;-68
2021/04/07 04:02:57;;;;;;;7.68;5.40;;;26.40;2201.60;;;;;;5090733;28;20021;-68
2021/04/07 04:05:23;;;;;;;7.55;4.95;;;26.40;2201.60;;;;;;5091024;28;20107;-69
2021/04/07 04:07:49;;;;;;;11.32;5.68;;;26.40;2201.60;;;;;;5090505;28;20107;-67
2021/04/07 04:10:15;;;;;;;8.23;5.10;;;26.40;2201.60;;;;;;5090615;28;20081;-68
2021/04/07 04:12:41;;;;;;;7.68;4.85;;;26.40;2201.60;;;;;;5090677;28;20020;-67
2021/04/07 04:15:11;;;;;;;8.07;5.35;;;26.30;2201.60;;;;;;5090856;28;20530;-68
2021/04/07 04:17:40;;;;;;;8.63;5.45;;;26.30;2201.60;;;;;;5090422;28;20497;-68
2021/04/07 04:20:07;;;;;;;10.13;6.05;;;26.30;2201.60;;;;;;5090587;28;20481;-68
2021/04/07 04:22:34;;;;;;;8.77;5.38;;;26.30;2201.60;;;;;;5090458;28;20020;-67
2021/04/07 04:25:00;;;;;;;9.60;5.90;;;26.30;2201.60;;;;;;5090432;28;20564;-72
2021/04/07 04:27:26;;;;;;;8.52;5.28;;;26.30;2201.60;;;;;;5090658;28;20024;-71
2021/04/07 04:29:51;;;;;;;8.93;5.97;;;26.30;2201.60;;;;;;5091332;28;20089;-68
2021/04/07 04:32:17;;;;;;;8.68;5.35;;;26.30;2201.60;;;;;;5094259;28;20921;-68
2021/04/07 04:34:43;;;;;;;9.57;5.95;;;26.30;2201.60;;;;;;5094240;28;20036;-68
2021/04/07 04:37:09;;;;;;;10.95;7.50;;;26.30;2201.60;;;;;;5094499;28;20027;-68
2021/04/07 04:39:35;;;;;;;14.70;10.23;;;26.30;2201.60;;;;;;5094124;28;20019;-67
2021/04/07 04:42:01;;;;;;;12.55;8.32;;;26.40;2201.60;;;;;;5076363;28;20027;-68
2021/04/07 04:44:27;;;;;;;13.02;8.20;;;26.40;2201.60;;;;;;5094208;28;20024;-68
2021/04/07 04:46:53;;;;;;;11.57;7.88;;;26.40;2201.60;;;;;;5094081;28;20039;-69
2021/04/07 04:49:18;;;;;;;10.45;6.63;;;26.50;2201.60;;;;;;5093711;28;20106;-67
2021/04/07 04:51:44;;;;;;;11.57;7.28;;;26.50;2201.60;;;;;;5094181;28;20582;-67
2021/04/07 04:54:10;;;;;;;15.85;9.57;;;26.50;2201.60;;;;;;5093788;28;20024;-68
2021/04/07 04:56:39;;;;;;;11.85;6.93;;;26.50;2201.60;;;;;;5094037;28;20322;-67
2021/04/07 04:59:05;;;;;;;10.95;7.38;;;26.50;2201.60;;;;;;5093495;28;20028;-69
2021/04/07 05:01:30;;;;;;;10.93;7.30;;;51.20;2227.20;;;;;;5093801;28;20028;-68
2021/04/07 05:03:57;;;;;;;10.00;6.63;;;51.30;2227.20;;;;;;5093934;28;20099;-68
2021/04/07 05:06:23;;;;;;;10.93;6.30;;;51.30;2227.20;;;;;;5093551;28;20020;-68
2021/04/07 05:08:48;;;;;;;8.60;5.90;;;51.40;2227.20;;;;;;5093390;28;20127;-69
2021/04/07 05:11:15;;;;;;;10.68;5.93;;;51.50;2227.20;;;;;;5093624;28;20020;-67
2021/04/07 05:13:41;;;;;;;10.95;6.07;;;51.50;2227.20;;;;;;5093545;28;20016;-67
2021/04/07 05:16:06;;;;;;;9.40;6.13;;;51.60;2227.20;;;;;;5093471;28;20073;-68
2021/04/07 05:18:32;;;;;;;10.90;7.40;;;51.60;2227.20;;;;;;5093191;28;20087;-68
2021/04/07 05:20:58;;;;;;;15.75;9.85;;;51.60;2227.20;;;;;;5093183;28;20133;-67
2021/04/07 05:23:24;;;;;;;11.82;7.45;;;51.60;2227.20;;;;;;5093254;28;20027;-68
2021/04/07 05:25:50;;;;;;;11.10;7.60;;;51.70;2227.20;;;;;;5093368;28;20492;-67
2021/04/07 05:28:15;;;;;;;8.75;6.20;;;51.80;2227.20;;;;;;5093569;28;20028;-67
2021/04/07 05:33:27;;;;;;;8.90;5.90;;;52.10;2227.20;;;;;;5093032;28;20055;-69
2021/04/07 05:35:58;;;;;;;9.50;5.85;;;76.90;2227.20;;;;;;5093256;28;20035;-69
2021/04/07 05:38:24;;;;;;;9.07;6.18;;;76.80;2227.20;;;;;;5093227;28;20020;-67
2021/04/07 05:40:55;;;;;;;10.52;6.50;;;77.00;2227.20;;;;;;5092645;28;20047;-69
2021/04/07 05:43:22;;;;;;;10.80;7.15;;;77.10;2227.20;;;;;;5092696;28;20035;-68
2021/04/07 05:45:48;;;;;;;10.05;6.68;;;77.10;2227.20;;;;;;5093002;28;20032;-67
2021/04/07 05:48:14;;;;;;;15.13;11.57;;;77.20;2227.20;;;;;;5093112;28;20035;-67
2021/04/07 05:50:51;;;;;;;10.80;6.78;;;77.30;2227.20;;;;;;5092491;28;20036;-68
2021/04/07 05:53:17;;;;;;;8.90;5.75;;;77.30;2227.20;;;;;;5092842;28;20048;-69
2021/04/07 05:55:51;;;;;;;8.07;5.47;;;77.40;2227.20;;;;;;5092696;28;20021;-68
2021/04/07 05:58:17;;;;;;;8.25;5.38;;;77.40;2227.20;;;;;;5092491;28;20024;-69
2021/04/07 06:00:44;;;;;;;9.02;5.20;;;77.40;2227.20;;;;;;5092376;28;20016;-68
2021/04/07 06:03:11;;;;;;;7.97;5.45;;;77.40;2227.20;;;;;;5092806;28;20027;-68
2021/04/07 06:05:38;;;;;;;7.97;5.00;;;77.40;2227.20;;;;;;5092509;28;20400;-69
2021/04/07 06:08:05;;;;;;;7.20;5.00;;;77.40;2227.20;;;;;;5092759;28;20388;-68
2021/04/07 06:10:32;;;;;;;7.22;5.07;;;77.40;2227.20;;;;;;5091923;28;20032;-66
2021/04/07 06:12:59;;;;;;;7.70;4.78;;;77.40;2227.20;;;;;;5092403;28;20034;-68
2021/04/07 06:15:25;;;;;;;9.57;5.80;;;77.40;2227.20;;;;;;5092439;28;20050;-69
2021/04/07 06:17:54;;;;;;;13.65;8.00;;;77.50;2227.20;;;;;;5092214;28;20031;-70
2021/04/07 06:20:21;;;;;;;8.32;5.57;;;77.50;2227.20;;;;;;5092202;28;20119;-73
2021/04/07 06:22:47;;;;;;;8.10;5.72;;;77.50;2227.20;;;;;;5092111;28;20020;-70
2021/04/07 06:25:13;;;;;;;8.65;5.88;;;77.40;2227.20;;;;;;5092342;28;20075;-68
2021/04/07 06:27:39;;;;;;;8.35;5.82;;;77.50;2227.20;;;;;;5092479;28;20062;-67
2021/04/07 06:30:06;;;;;;;9.65;6.07;;;77.60;2227.20;;;;;;5091762;28;20028;-66
2021/04/07 06:32:32;;;;;;;8.55;5.55;;;102.40;2227.20;;;;;;5092378;28;20027;-66
2021/04/07 06:34:58;;;;;;;9.90;5.90;;;102.50;2227.20;;;;;;5091846;28;20051;-72
2021/04/07 06:37:23;;;;;;;10.45;6.68;;;102.70;2227.20;;;;;;5092137;28;20483;-70
2021/04/07 06:39:49;;;;;;;9.38;6.47;;;102.90;2227.20;;;;;;5092038;28;20020;-67
2021/04/07 06:42:16;;;;;;;9.48;6.60;;;102.80;2227.20;;;;;;5092125;28;20507;-66
2021/04/07 06:44:42;;;;;;;10.27;6.70;;;102.80;2227.20;;;;;;5091796;28;20099;-69
2021/04/07 06:47:09;;;;;;;15.85;9.30;;;102.90;2227.20;;;;;;5092058;28;20028;-67
2021/04/07 06:49:35;;;;;;;17.15;11.52;;;103.10;2227.20;;;;;;5091399;28;20019;-69
2021/04/07 06:52:02;;;;;;;40.28;25.95;;;103.30;2227.20;;;;;;5092126;28;20111;-67
2021/04/07 06:54:29;;;;;;;22.92;16.30;;;128.20;2252.80;;;;;;5091222;28;20583;-69
2021/04/07 06:56:56;;;;;;;20.15;13.98;;;128.30;2252.80;;;;;;5091811;28;20116;-69
2021/04/07 06:59:22;;;;;;;13.68;9.32;;;128.20;2252.80;;;;;;5091238;28;20094;-67
2021/04/07 07:01:48;;;;;;;15.88;10.63;;;128.20;2252.80;;;;;;5091709;28;20030;-67
2021/04/07 07:04:14;;;;;;;16.95;11.18;;;128.30;2252.80;;;;;;5091352;28;20020;-70
2021/04/07 07:06:40;;;;;;;12.85;8.88;;;128.40;2252.80;;;;;;5091546;28;20032;-71
2021/04/07 07:09:14;;;;;;;14.13;9.18;;;128.60;2252.80;;;;;;5091251;28;20035;-69
2021/04/07 07:11:40;;;;;;;12.52;7.85;;;128.40;2252.80;;;;;;5091478;28;20049;-68
2021/04/07 07:14:07;;;;;;;10.10;7.55;;;128.40;2252.80;;;;;;5091270;28;20046;-67
2021/04/07 07:16:32;;;;;;;9.95;7.65;;;128.40;2252.80;;;;;;5091201;28;20066;-67
2021/04/07 07:18:59;;;;;;;10.27;7.28;;;128.70;2252.80;;;;;;5073046;28;20032;-67
2021/04/07 07:21:25;;;;;;;17.48;12.07;;;128.80;2252.80;;;;;;5091291;28;20081;-71
2021/04/07 07:23:51;;;;;;;14.40;10.35;;;128.80;2252.80;;;;;;5090229;28;20024;-67
2021/04/07 07:26:20;;;;;;;11.73;8.65;;;128.90;2252.80;;;;;;5090826;28;20050;-67
2021/04/07 07:28:49;;;;;;;13.23;8.65;;;153.70;2252.80;;;;;;5091054;28;20039;-70
2021/04/07 07:31:21;;;;;;;12.43;9.38;;;153.80;2252.80;;;;;;5091180;28;20020;-66
2021/04/07 07:33:47;;;;;;;12.73;8.98;;;153.90;2252.80;;;;;;5090569;28;20130;-67
2021/04/07 07:36:13;;;;;;;17.98;12.95;;;153.80;2252.80;;;;;;5090819;28;20451;-71
2021/04/07 07:38:51;;;;;;;11.65;8.38;;;153.80;2252.80;;;;;;5090739;28;20073;-68
2021/04/07 07:41:23;;;;;;;21.85;17.83;;;153.60;2252.80;;;;;;5088891;28;20072;-68
2021/04/07 07:43:49;;;;;;;35.92;27.88;;;153.60;2252.80;;;;;;5090620;28;20077;-69
2021/04/07 07:46:19;;;;;;;13.27;10.60;;;128.90;2252.80;;;;;;5090836;28;20387;-70
2021/04/07 07:48:47;;;;;;;31.43;23.20;;;128.90;2252.80;;;;;;5090768;28;20099;-67
2021/04/07 07:51:17;;;;;;;18.58;14.77;;;153.60;2252.80;;;;;;5091022;28;20441;-70
2021/04/07 07:53:45;;;;;;;9.07;6.45;;;153.70;2252.80;;;;;;5091139;28;20016;-67
2021/04/07 07:56:14;;;;;;;7.68;5.65;;;153.70;2252.80;;;;;;5090910;28;20035;-67
2021/04/07 07:58:45;;;;;;;7.55;5.90;;;153.70;2252.80;;;;;;5090369;28;20020;-68
2021/04/07 08:01:15;;;;;;;16.60;11.00;;;153.60;2252.80;;;;;;5090624;28;20016;-70
2021/04/07 08:03:43;;;;;;;23.95;18.27;;;128.90;2252.80;;;;;;5090757;28;20016;-68
2021/04/07 08:06:10;;;;;;;8.40;6.00;;;128.80;2252.80;;;;;;5093648;28;20028;-67
2021/04/07 08:08:36;;;;;;;9.45;6.47;;;128.70;2252.80;;;;;;5094078;28;20024;-68
2021/04/07 08:11:04;;;;;;;13.48;9.57;;;128.60;2252.80;;;;;;5094037;28;20499;-68
2021/04/07 08:13:44;;;;;;;11.75;9.52;;;153.60;2252.80;;;;;;5094734;28;20024;-67
2021/04/07 08:16:16;;;;;;;13.57;9.48;;;153.80;2252.80;;;;;;5094117;28;20063;-71
2021/04/07 08:18:47;;;;;;;17.52;11.68;;;154.10;2252.80;;;;;;5094460;28;20027;-70
2021/04/07 08:21:19;;;;;;;;;;;154.20;2252.80;;;;;;5092532;28;20027;-68
2021/04/07 08:23:51;;;;;;;13.25;8.90;;;154.50;2252.80;;;;;;5073666;28;19912;-67
2021/04/07 08:26:20;;;;;;;18.33;13.10;;;179.30;2227.20;;;;;;5076950;28;20078;-66
2021/04/07 08:28:46;;;;;;;12.95;9.00;;;179.30;2252.80;;;;;;5074900;28;20027;-68
2021/04/07 08:31:14;;;;;;;13.63;9.15;;;179.20;2252.80;;;;;;5089272;28;20039;-66
2021/04/07 08:34:02;;;;;;;14.60;9.13;;;179.20;2201.60;;;;;;5093504;28;20048;-68
2021/04/07 08:36:29;;;;;;;10.93;7.35;;;154.50;2227.20;;;;;;5091979;28;20036;-67
2021/04/07 08:39:04;;;;;;;11.18;7.75;;;179.50;2201.60;;;;;;5093779;28;20073;-69
2021/04/07 08:41:31;;;;;;;13.23;8.70;;;180.10;2124.80;;;;;;5093550;28;20031;-68
2021/04/07 08:43:58;;;;;;;14.52;9.85;;;204.90;2099.20;;;;;;5093496;28;20073;-66
2021/04/07 08:46:27;;;;;;;13.55;9.77;;;204.90;2022.40;;;;;;5093496;28;20020;-66
2021/04/07 08:48:53;;;;;;;32.85;22.52;;;205.10;1971.20;;;;;;5092958;28;20027;-68
2021/04/07 08:51:21;;;;;;;44.67;30.10;;;205.30;1996.80;;;;;;5089620;28;20438;-68
2021/04/07 08:53:51;;;;;;;14.60;10.07;;;231.30;1868.80;;;;;;5082942;28;20029;-67
2021/04/07 08:56:25;;;;;;;9.32;6.60;;;256.20;1843.20;;;;;;5073773;28;20358;-68
2021/04/07 08:58:56;;;;;;;12.95;9.25;;;256.20;1817.60;;;;;;5090853;28;20107;-72
2021/04/07 09:01:31;;;;;;;20.45;14.82;;;256.80;1740.80;;;;;;5092703;28;20020;-66
2021/04/07 09:04:11;;;;;;;17.73;11.50;;;230.70;1792.00;;;;;;5093311;28;20362;-65
2021/04/07 09:06:38;;;;;;;16.57;11.97;;;230.40;1868.80;;;;;;5093019;28;20473;-66
2021/04/07 09:09:06;;;;;;;14.15;9.65;;;205.60;1920.00;;;;;;5088691;28;20915;-66
2021/04/07 09:11:33;;;;;;;42.33;27.90;;;205.50;1894.40;;;;;;5083596;28;20024;-70
2021/04/07 09:14:03;;;;;;;54.65;36.88;;;230.60;1868.80;;;;;;5087816;28;20025;-71
2021/04/07 09:16:37;;;;;;;33.63;21.13;;;230.50;1920.00;;;;;;5091879;28;20031;-65
2021/04/07 09:19:20;;;;;;;37.97;26.17;;;230.90;1894.40;;;;;;5093007;28;20135;-67
2021/04/07 09:22:05;;;;;;;47.03;35.13;;;359.00;1459.20;;;;;;5090195;28;20547;-66
2021/04/07 09:24:38;;;;;;;25.13;17.80;;;435.60;1331.20;;;;;;5092825;28;20032;-66
2021/04/07 09:27:05;;;;;;;25.23;16.83;;;410.50;1280.00;;;;;;5092748;28;20024;-66
2021/04/07 09:29:31;;;;;;;34.97;29.88;;;410.10;1331.20;;;;;;5093349;28;20520;-66
2021/04/07 09:31:56;;;;;;;24.38;13.70;;;409.80;1331.20;;;;;;5092825;28;20123;-75
2021/04/07 09:34:24;;;;;;;21.70;13.15;;;358.80;1459.20;;;;;;5092972;28;20115;-71
2021/04/07 09:36:50;;;;;;;15.15;10.65;;;333.40;1459.20;;;;;;5091831;28;20070;-69
2021/04/07 09:39:22;;;;;;;21.25;12.82;;;307.50;1536.00;;;;;;5092506;28;20028;-67
2021/04/07 09:41:48;;;;;;;15.02;9.65;;;308.10;1536.00;;;;;;5092355;28;20132;-67
2021/04/07 09:44:16;;;;;;;19.08;10.43;;;307.80;1561.60;;;;;;5092284;28;20012;-68
2021/04/07 09:46:55;;;;;;;17.00;11.57;;;307.80;1536.00;;;;;;5092272;28;20028;-67
2021/04/07 09:49:22;;;;;;;15.43;10.50;;;332.80;1536.00;;;;;;5091722;28;20020;-67
2021/04/07 09:51:49;;;;;;;20.27;12.70;;;333.20;1536.00;;;;;;5092245;28;20471;-66
2021/04/07 09:54:28;;;;;;;17.38;11.13;;;333.10;1484.80;;;;;;5091818;28;20027;-67
2021/04/07 09:57:00;;;;;;;12.57;8.85;;;333.50;1484.80;;;;;;5092118;28;20047;-68
2021/04/07 09:59:45;;;;;;;10.05;7.80;;;333.70;1459.20;;;;;;5091486;28;20012;-68
2021/04/07 10:02:24;;;;;;;22.13;15.35;;;333.60;1459.20;;;;;;5092145;28;20038;-66
2021/04/07 10:04:51;;;;;;;9.75;7.22;;;333.70;1433.60;;;;;;5092121;28;21029;-67
2021/04/07 10:07:22;;;;;;;14.63;10.35;;;358.40;1459.20;;;;;;5091773;28;20053;-69
2021/04/07 10:09:50;;;;;;;16.38;11.55;;;332.90;1484.80;;;;;;5091545;28;20024;-65
2021/04/07 10:12:21;;;;;;;13.90;9.70;;;307.60;1510.40;;;;;;5091314;28;20147;-66
2021/04/07 10:14:48;;;;;;;;;;;307.40;1484.80;;;;;;5091760;28;20496;-66
2021/04/07 10:17:23;;;;;;;10.88;7.30;;;307.30;1536.00;;;;;;5088776;28;19918;-67
2021/04/07 10:19:49;;;;;;;10.55;7.28;;;307.30;1536.00;;;;;;5091197;28;20047;-67
2021/04/07 10:22:22;;;;;;;11.32;8.45;;;307.70;1536.00;;;;;;5091244;28;20507;-67
2021/04/07 10:24:49;;;;;;;16.10;11.05;;;307.60;1459.20;;;;;;5091311;28;20487;-67
2021/04/07 10:27:23;;;;;;;12.52;9.07;;;307.80;1484.80;;;;;;5090828;28;20024;-66
2021/04/07 10:29:49;;;;;;;13.88;8.75;;;332.80;1459.20;;;;;;5081934;28;20104;-67
2021/04/07 10:32:17;;;;;;;13.98;10.13;;;308.10;1459.20;;;;;;5073143;28;20126;-66
2021/04/07 10:34:44;;;;;;;11.18;7.60;;;307.70;1459.20;;;;;;5070257;28;20457;-68
2021/04/07 10:37:11;;;;;;;17.17;11.35;;;308.00;1510.40;;;;;;5071787;28;20065;-71
2021/04/07 10:39:42;;;;;;;22.65;13.15;;;307.80;1459.20;;;;;;5072837;28;20120;-72
2021/04/07 10:42:30;;;;;;;24.65;15.05;;;307.80;1484.80;;;;;;5077366;28;20024;-77
2021/04/07 10:45:04;;;;;;;180.80;88.35;;;307.50;1459.20;;;;;;5077671;28;20037;-67
2021/04/07 10:47:39;;;;;;;51.70;30.67;;;282.40;1484.80;;;;;;5075388;28;20103;-67
2021/04/07 10:50:08;;;;;;;194.55;99.47;;;282.20;1510.40;;;;;;5071829;28;20073;-68
2021/04/07 10:52:41;;;;;;;93.53;53.13;;;282.40;1433.60;;;;;;5074258;28;20036;-71
2021/04/07 10:55:10;;;;;;;104.75;64.57;;;282.00;1459.20;;;;;;5078906;28;20036;-68
2021/04/07 10:57:45;;;;;;;27.88;19.15;;;281.70;1510.40;;;;;;5088859;28;20062;-69
2021/04/07 11:00:23;;;;;;;32.13;27.17;;;256.90;1536.00;;;;;;5088900;28;20020;-68
2021/04/07 11:02:51;;;;;;;14.85;13.15;;;256.80;1510.40;;;;;;5086216;28;20009;-68
2021/04/07 11:05:22;;;;;;;11.30;8.20;;;256.40;1510.40;;;;;;5086183;28;20096;-67
2021/04/07 11:08:03;;;;;;;11.07;8.85;;;256.40;1561.60;;;;;;5082583;28;20048;-68
2021/04/07 11:10:43;;;;;;;10.98;7.80;;;256.40;1561.60;;;;;;5088682;28;20055;-66
2021/04/07 11:13:12;;;;;;;9.18;6.60;;;281.60;1510.40;;;;;;5088514;28;20435;-68
2021/04/07 11:15:40;;;;;;;11.23;8.20;;;282.50;1484.80;;;;;;5088100;28;20024;-68
2021/04/07 11:18:08;;;;;;;12.48;8.43;;;307.20;1510.40;;;;;;5086534;28;20384;-68
2021/04/07 11:20:36;;;;;;;11.07;8.38;;;307.50;1459.20;;;;;;5079940;28;20099;-68
2021/04/07 11:23:01;;;;;;;16.50;11.55;;;282.40;1408.00;;;;;;5073761;28;20024;-67
2021/04/07 11:25:28;;;;;;;16.73;11.25;;;282.20;1484.80;;;;;;5077723;28;20043;-66
2021/04/07 11:27:57;;;;;;;35.50;21.75;;;282.30;1459.20;;;;;;5079439;28;20035;-67
2021/04/07 11:30:24;;;;;;;17.25;11.05;;;307.50;1459.20;;;;;;5070854;28;20031;-70
2021/04/07 11:32:54;;;;;;;18.98;11.77;;;307.90;1408.00;;;;;;5070213;28;20031;-70
2021/04/07 11:38:06;;;;;;;12.43;7.90;;;307.60;1382.40;;;;;;5075880;28;20081;-68
2021/04/07 11:43:10;;;;;;;12.95;9.23;;;282.30;1433.60;;;;;;5074619;28;20039;-66
2021/04/07 11:45:36;;;;;;;9.48;6.22;;;256.80;1433.60;;;;;;5077420;28;20098;-67
2021/04/07 11:48:02;;;;;;;8.65;5.75;;;256.10;1484.80;;;;;;5083677;28;20032;-66
2021/04/07 11:50:28;;;;;;;10.90;9.13;;;256.10;1536.00;;;;;;5082783;28;20027;-67
2021/04/07 11:52:54;;;;;;;8.82;6.43;;;256.20;1484.80;;;;;;5081946;28;20024;-67
2021/04/07 11:55:20;;;;;;;9.68;6.05;;;256.50;1459.20;;;;;;5085812;28;20093;-68
2021/04/07 11:57:46;;;;;;;8.70;5.82;;;256.30;1433.60;;;;;;5085652;28;20016;-68
2021/04/07 12:00:13;;;;;;;9.88;7.28;;;256.00;1459.20;;;;;;5088653;28;20061;-67
2021/04/07 12:02:42;;;;;;;6.90;5.30;;;231.00;1459.20;;;;;;5089272;28;20115;-68
2021/04/07 12:05:09;;;;;;;6.40;4.72;;;231.20;1484.80;;;;;;5089224;28;20038;-67
2021/04/07 12:07:35;;;;;;;9.00;5.57;;;256.40;1459.20;;;;;;5089666;28;20024;-67
2021/04/07 12:10:01;;;;;;;7.22;4.82;;;256.80;1433.60;;;;;;5088774;28;20024;-66
2021/04/07 12:12:27;;;;;;;6.97;5.47;;;256.90;1408.00;;;;;;5089534;28;20020;-66
2021/04/07 12:14:52;;;;;;;8.85;6.03;;;256.60;1408.00;;;;;;5089054;28;20107;-69
2021/04/07 12:17:18;;;;;;;16.98;10.43;;;256.50;1459.20;;;;;;5089328;28;20027;-67
2021/04/07 12:19:44;;;;;;;9.15;5.70;;;256.40;1484.80;;;;;;5089053;28;20017;-69
2021/04/07 12:22:12;;;;;;;8.48;5.55;;;256.40;1459.20;;;;;;5080064;28;20067;-67
2021/04/07 12:24:37;;;;;;;8.38;5.53;;;256.40;1433.60;;;;;;5076244;28;20507;-67
2021/04/07 12:27:04;;;;;;;8.02;5.57;;;256.30;1433.60;;;;;;5089294;28;20032;-66
2021/04/07 12:29:29;;;;;;;7.65;5.05;;;256.10;1433.60;;;;;;5084812;28;20048;-67